Time;durP1;ratioP1;P1;durP2;ratioP2;P2;SDS_P1;SDS_P2;PMS_P1;PMS_P2;Temp;Humidity;BMP_temperature;BMP_pressure;BME280_temperature;BME280_humidity;BME280_pressure;Samples;Min_cycle;Max_cycle;Signal;HPM_P1;HPM_P2
2022/01/03 00:00:52;;;;;;;18.77;3.80;;;;;;;;;;6288696;28;20225;-78
2022/01/03 00:03:58;;;;;;;7.67;3.80;;;;;;;;;;6289075;28;20211;-79
2022/01/03 00:07:04;;;;;;;3.93;3.60;;;;;;;;;;6288947;28;20228;-79
2022/01/03 00:10:12;;;;;;;24.97;3.87;;;;;;;;;;6288206;28;20474;-78
2022/01/03 00:13:16;;;;;;;19.93;3.67;;;;;;;;;;6287696;28;20191;-79
2022/01/03 00:16:23;;;;;;;163.20;6.17;;;;;;;;;;6288926;28;20187;-79
2022/01/03 00:19:29;;;;;;;4.80;2.80;;;;;;;;;;6288710;28;20307;-78
2022/01/03 00:22:46;;;;;;;4.93;3.30;;;;;;;;;;6287736;28;20499;-78
2022/01/03 00:25:52;;;;;;;2.57;2.47;;;;;;;;;;6288651;28;20242;-78
2022/01/03 00:28:58;;;;;;;2.73;2.37;;;;;;;;;;6287406;28;20474;-79
2022/01/03 00:32:09;;;;;;;3.43;3.00;;;;;;;;;;6288633;28;20187;-78
2022/01/03 00:35:16;;;;;;;3.77;2.87;;;;;;;;;;6287205;28;20210;-79
2022/01/03 00:38:21;;;;;;;2.37;2.27;;;;;;;;;;6288252;28;20187;-79
2022/01/03 00:41:26;;;;;;;2.70;2.50;;;;;;;;;;6286685;28;20202;-78
2022/01/03 00:44:30;;;;;;;2.33;2.23;;;;;;;;;;6287007;28;20213;-78
2022/01/03 00:47:36;;;;;;;2.47;2.37;;;;;;;;;;6286786;28;20318;-78
2022/01/03 00:50:42;;;;;;;3.33;2.40;;;;;;;;;;6286764;28;20317;-79
2022/01/03 00:53:47;;;;;;;3.50;2.30;;;;;;;;;;6286297;28;20490;-79
2022/01/03 00:56:54;;;;;;;2.30;2.20;;;;;;;;;;6287253;28;20188;-78
2022/01/03 01:00:04;;;;;;;2.53;2.43;;;;;;;;;;6286489;28;20268;-78
2022/01/03 01:03:21;;;;;;;2.10;2.00;;;;;;;;;;6288608;28;20208;-79
2022/01/03 01:06:26;;;;;;;2.47;2.17;;;;;;;;;;6286470;28;20230;-78
2022/01/03 01:09:31;;;;;;;2.40;2.20;;;;;;;;;;6287398;28;20210;-79
2022/01/03 01:12:38;;;;;;;2.57;2.30;;;;;;;;;;6290787;28;20494;-79
2022/01/03 01:15:42;;;;;;;2.03;2.03;;;;;;;;;;6325152;28;20205;-79
2022/01/03 01:18:49;;;;;;;5.23;2.70;;;;;;;;;;6291128;28;20209;-79
2022/01/03 01:21:56;;;;;;;5.93;2.33;;;;;;;;;;6324322;28;20200;-79
2022/01/03 01:25:23;;;;;;;3.13;2.20;;;;;;;;;;6324665;28;20223;-78
2022/01/03 01:28:28;;;;;;;2.20;2.07;;;;;;;;;;6291371;28;20200;-78
2022/01/03 01:31:35;;;;;;;1.97;1.97;;;;;;;;;;6292153;28;20204;-79
2022/01/03 01:34:41;;;;;;;2.00;2.00;;;;;;;;;;6291923;28;20191;-78
2022/01/03 01:37:47;;;;;;;2.17;1.97;;;;;;;;;;6291536;28;20263;-78
2022/01/03 01:40:53;;;;;;;2.40;2.10;;;;;;;;;;6291086;28;20238;-78
2022/01/03 01:44:00;;;;;;;1.97;1.97;;;;;;;;;;6291353;28;20203;-78
2022/01/03 01:47:07;;;;;;;2.13;2.03;;;;;;;;;;6290734;28;20238;-78
2022/01/03 01:50:12;;;;;;;2.87;2.40;;;;;;;;;;6290780;28;20211;-79
2022/01/03 01:53:22;;;;;;;1.97;1.97;;;;;;;;;;6290883;28;20529;-79
2022/01/03 01:56:39;;;;;;;4.20;2.20;;;;;;;;;;6291402;28;20275;-78
2022/01/03 01:59:55;;;;;;;3.63;2.13;;;;;;;;;;6289922;28;20209;-78
2022/01/03 02:03:14;;;;;;;2.33;1.70;;;;;;;;;;6290316;28;20230;-78
2022/01/03 02:06:38;;;;;;;2.97;1.70;;;;;;;;;;6289649;28;20231;-79
2022/01/03 02:09:50;;;;;;;1.83;1.83;;;;;;;;;;6290324;28;20210;-79
2022/01/03 02:12:56;;;;;;;1.63;1.47;;;;;;;;;;6289955;28;20277;-78
2022/01/03 02:16:07;;;;;;;5.83;2.07;;;;;;;;;;6290122;28;20283;-78
2022/01/03 02:19:19;;;;;;;3.77;1.67;;;;;;;;;;6290438;28;20525;-78
2022/01/03 02:22:26;;;;;;;5.27;1.97;;;;;;;;;;6288540;28;20322;-79
2022/01/03 02:25:32;;;;;;;2.80;1.60;;;;;;;;;;6289213;28;20254;-78
2022/01/03 02:28:37;;;;;;;2.40;1.90;;;;;;;;;;6291321;28;20229;-79
2022/01/03 02:31:43;;;;;;;6.90;1.50;;;;;;;;;;6289294;28;20203;-78
2022/01/03 02:34:48;;;;;;;1.77;1.50;;;;;;;;;;6289323;28;20210;-79
2022/01/03 02:38:02;;;;;;;4.80;1.60;;;;;;;;;;6289504;28;20236;-78
2022/01/03 02:41:09;;;;;;;1.87;1.77;;;;;;;;;;6289805;28;20255;-78
2022/01/03 02:44:14;;;;;;;1.53;1.47;;;;;;;;;;6289035;28;20240;-79
2022/01/03 02:47:22;;;;;;;2.50;1.50;;;;;;;;;;6289907;28;20416;-78
2022/01/03 02:50:29;;;;;;;2.00;1.87;;;;;;;;;;6288998;28;20201;-78
2022/01/03 02:53:35;;;;;;;5.20;1.70;;;;;;;;;;6290376;28;20254;-78
2022/01/03 02:56:41;;;;;;;1.27;1.27;;;;;;;;;;6288459;28;20274;-79
2022/01/03 02:59:46;;;;;;;1.47;1.47;;;;;;;;;;6290229;28;20254;-78
2022/01/03 03:02:50;;;;;;;3.37;1.57;;;;;;;;;;6289431;28;20246;-78
2022/01/03 03:05:58;;;;;;;1.87;1.60;;;;;;;;;;6289442;28;20223;-78
2022/01/03 03:09:07;;;;;;;2.20;1.33;;;;;;;;;;6289602;28;20234;-78
2022/01/03 03:12:12;;;;;;;2.10;1.50;;;;;;;;;;6289242;28;20430;-78
2022/01/03 03:15:17;;;;;;;3.40;1.57;;;;;;;;;;6289553;28;20206;-78
2022/01/03 03:18:22;;;;;;;1.53;1.53;;;;;;;;;;6289428;28;20209;-78
2022/01/03 03:21:30;;;;;;;1.60;1.60;;;;;;;;;;6322728;28;20248;-78
2022/01/03 03:24:35;;;;;;;1.30;1.30;;;;;;;;;;6289225;28;20201;-78
2022/01/03 03:27:43;;;;;;;1.17;1.17;;;;;;;;;;6288423;28;20252;-78
2022/01/03 03:30:57;;;;;;;1.50;1.50;;;;;;;;;;6288498;28;20489;-78
2022/01/03 03:34:13;;;;;;;1.50;1.50;;;;;;;;;;6288962;28;20211;-78
2022/01/03 03:37:17;;;;;;;1.30;1.27;;;;;;;;;;6288030;28;20505;-78
2022/01/03 03:40:25;;;;;;;4.03;1.47;;;;;;;;;;6287844;28;20270;-79
2022/01/03 03:43:30;;;;;;;1.80;1.43;;;;;;;;;;6288689;28;20268;-78
2022/01/03 03:46:37;;;;;;;2.10;1.50;;;;;;;;;;6288116;28;20227;-78
2022/01/03 03:49:42;;;;;;;3.27;1.70;;;;;;;;;;6289643;28;20243;-78
2022/01/03 03:52:48;;;;;;;4.23;1.10;;;;;;;;;;6288632;28;20232;-78
2022/01/03 03:55:55;;;;;;;1.50;1.40;;;;;;;;;;6288493;28;20207;-78
2022/01/03 03:59:02;;;;;;;1.80;1.30;;;;;;;;;;6321297;28;20442;-78
2022/01/03 04:02:09;;;;;;;3.70;1.57;;;;;;;;;;6288185;28;20206;-79
2022/01/03 04:05:15;;;;;;;1.70;1.20;;;;;;;;;;6287424;28;20210;-78
2022/01/03 04:08:21;;;;;;;4.90;1.43;;;;;;;;;;6286798;28;20231;-78
2022/01/03 04:11:28;;;;;;;3.70;2.00;;;;;;;;;;6288403;28;20210;-78
2022/01/03 04:14:32;;;;;;;1.50;1.40;;;;;;;;;;6289239;28;20188;-78
2022/01/03 04:17:37;;;;;;;4.13;1.70;;;;;;;;;;6287869;28;20210;-78
2022/01/03 04:20:42;;;;;;;1.50;1.50;;;;;;;;;;6287251;28;20310;-78
2022/01/03 04:23:47;;;;;;;3.07;1.40;;;;;;;;;;6287686;28;20490;-78
2022/01/03 04:26:53;;;;;;;8.13;1.40;;;;;;;;;;6288147;28;20306;-78
2022/01/03 04:29:57;;;;;;;3.20;1.63;;;;;;;;;;6287817;28;20380;-78
2022/01/03 04:33:01;;;;;;;7.30;2.00;;;;;;;;;;6287793;28;20278;-78
2022/01/03 04:36:06;;;;;;;6.37;1.60;;;;;;;;;;6287972;28;20270;-78
2022/01/03 04:39:11;;;;;;;2.60;1.80;;;;;;;;;;6288868;28;20185;-78
2022/01/03 04:42:16;;;;;;;1.60;1.60;;;;;;;;;;6287241;28;20224;-79
2022/01/03 04:45:21;;;;;;;4.97;1.93;;;;;;;;;;6289519;28;20228;-78
2022/01/03 04:48:26;;;;;;;5.63;1.70;;;;;;;;;;6293283;28;20299;-79
2022/01/03 04:51:30;;;;;;;1.97;1.30;;;;;;;;;;6292680;28;20280;-78
2022/01/03 04:54:34;;;;;;;6.03;1.40;;;;;;;;;;6293709;28;20262;-78
2022/01/03 04:57:40;;;;;;;8.83;1.70;;;;;;;;;;6292140;28;20541;-78
2022/01/03 05:00:47;;;;;;;2.60;1.70;;;;;;;;;;6292462;28;20207;-78
2022/01/03 05:03:52;;;;;;;7.70;2.07;;;;;;;;;;6292381;28;20290;-78
2022/01/03 05:06:57;;;;;;;7.13;2.00;;;;;;;;;;6290876;28;20226;-79
2022/01/03 05:10:03;;;;;;;3.37;1.77;;;;;;;;;;6291331;28;20203;-78
2022/01/03 05:13:11;;;;;;;7.77;1.87;;;;;;;;;;6323719;28;20473;-78
2022/01/03 05:16:16;;;;;;;7.57;2.40;;;;;;;;;;6291552;28;20245;-78
2022/01/03 05:19:22;;;;;;;8.83;2.10;;;;;;;;;;6292903;28;20188;-78
2022/01/03 05:22:27;;;;;;;9.53;1.90;;;;;;;;;;6291901;28;20204;-78
2022/01/03 05:25:31;;;;;;;4.73;1.80;;;;;;;;;;6291340;28;20203;-79
2022/01/03 05:28:45;;;;;;;6.07;2.00;;;;;;;;;;6291418;28;20214;-78
2022/01/03 05:31:49;;;;;;;9.27;2.23;;;;;;;;;;6290686;28;20380;-78
2022/01/03 05:34:54;;;;;;;5.40;2.13;;;;;;;;;;6324651;28;20200;-79
2022/01/03 05:37:59;;;;;;;8.63;1.70;;;;;;;;;;6292569;28;20262;-78
2022/01/03 05:41:04;;;;;;;7.80;2.00;;;;;;;;;;6290940;28;20202;-78
2022/01/03 05:44:10;;;;;;;5.80;1.60;;;;;;;;;;6292623;28;20259;-78
2022/01/03 05:47:15;;;;;;;6.57;2.27;;;;;;;;;;6290315;28;20239;-78
2022/01/03 05:50:20;;;;;;;8.90;2.50;;;;;;;;;;6290425;28;20226;-79
2022/01/03 05:53:26;;;;;;;7.47;2.60;;;;;;;;;;6290856;28;20226;-78
2022/01/03 05:56:30;;;;;;;3.70;1.90;;;;;;;;;;6290812;28;20507;-78
2022/01/03 05:59:36;;;;;;;2.23;1.73;;;;;;;;;;6291471;28;20233;-78
2022/01/03 06:02:42;;;;;;;2.07;1.93;;;;;;;;;;6290970;28;20203;-78
2022/01/03 06:06:05;;;;;;;5.23;2.30;;;;;;;;;;6289696;28;20207;-78
2022/01/03 06:09:10;;;;;;;11.73;1.97;;;;;;;;;;6290246;28;20235;-78
2022/01/03 06:12:16;;;;;;;5.70;1.87;;;;;;;;;;6291641;28;20232;-78
2022/01/03 06:15:25;;;;;;;5.33;1.63;;;;;;;;;;6290007;28;20203;-78
2022/01/03 06:18:30;;;;;;;5.40;2.03;;;;;;;;;;6290086;28;20211;-78
2022/01/03 06:21:41;;;;;;;4.77;1.90;;;;;;;;;;6289577;28;20506;-78
2022/01/03 06:24:48;;;;;;;6.53;1.80;;;;;;;;;;6290179;28;20210;-78
2022/01/03 06:27:54;;;;;;;4.40;1.67;;;;;;;;;;6323667;28;20235;-78
2022/01/03 06:31:00;;;;;;;3.83;2.07;;;;;;;;;;6289574;28;20203;-78
2022/01/03 06:34:07;;;;;;;1.70;1.60;;;;;;;;;;6289972;28;20200;-78
2022/01/03 06:37:11;;;;;;;2.87;1.53;;;;;;;;;;6289534;28;20207;-78
2022/01/03 06:40:54;;;;;;;2.00;1.83;;;;;;;;;;6289344;28;20209;-78
2022/01/03 06:43:58;;;;;;;2.77;1.60;;;;;;;;;;6289239;28;20210;-78
2022/01/03 06:47:05;;;;;;;4.13;1.80;;;;;;;;;;6288427;28;20242;-78
2022/01/03 06:50:10;;;;;;;7.70;1.90;;;;;;;;;;6290631;28;20505;-80
2022/01/03 06:53:15;;;;;;;1.90;1.80;;;;;;;;;;6289494;28;20202;-78
2022/01/03 06:56:20;;;;;;;5.33;2.10;;;;;;;;;;6290662;28;20204;-78
2022/01/03 06:59:24;;;;;;;3.23;1.80;;;;;;;;;;6288887;28;20207;-78
2022/01/03 07:02:31;;;;;;;5.60;2.03;;;;;;;;;;6288669;28;20202;-78
2022/01/03 07:05:35;;;;;;;2.53;1.50;;;;;;;;;;6289221;28;20188;-78
2022/01/03 07:08:44;;;;;;;4.23;1.80;;;;;;;;;;6289953;28;20230;-79
2022/01/03 07:11:48;;;;;;;10.17;2.03;;;;;;;;;;6291906;28;20191;-80
2022/01/03 07:21:40;;;;;;;7.63;1.70;;;;;;;;;;6291657;28;20188;-79
2022/01/03 07:24:45;;;;;;;4.13;1.43;;;;;;;;;;6290970;28;20192;-79
2022/01/03 07:27:49;;;;;;;7.33;1.80;;;;;;;;;;6291076;28;20328;-79
2022/01/03 07:30:53;;;;;;;6.17;1.87;;;;;;;;;;6293436;28;20216;-78
2022/01/03 07:33:59;;;;;;;3.67;1.80;;;;;;;;;;6293418;28;20185;-78
2022/01/03 07:37:04;;;;;;;9.13;1.70;;;;;;;;;;6291626;28;20186;-78
2022/01/03 07:40:11;;;;;;;6.20;1.73;;;;;;;;;;6289884;28;20191;-78
2022/01/03 07:43:15;;;;;;;4.87;1.77;;;;;;;;;;6290562;28;20233;-79
2022/01/03 07:46:19;;;;;;;2.53;1.73;;;;;;;;;;6289302;28;20301;-79
2022/01/03 07:49:25;;;;;;;7.10;1.73;;;;;;;;;;6239580;28;20224;-79
2022/01/03 07:52:29;;;;;;;2.70;1.33;;;;;;;;;;6238258;28;20387;-79
2022/01/03 07:55:34;;;;;;;4.73;1.93;;;;;;;;;;6238339;28;20359;-79
2022/01/03 07:58:39;;;;;;;2.03;1.77;;;;;;;;;;6238717;28;20228;-79
2022/01/03 08:01:43;;;;;;;5.20;2.20;;;;;;;;;;6238625;28;20383;-78
2022/01/03 08:04:49;;;;;;;2.93;1.50;;;;;;;;;;6239492;28;20215;-79
2022/01/03 08:07:53;;;;;;;7.93;1.70;;;;;;;;;;6240127;28;20208;-79
2022/01/03 08:10:57;;;;;;;1.97;1.40;;;;;;;;;;6239849;28;20267;-79
2022/01/03 08:14:01;;;;;;;4.53;1.90;;;;;;;;;;6241931;28;20194;-79
2022/01/03 08:17:06;;;;;;;4.73;1.47;;;;;;;;;;6238447;28;20503;-79
2022/01/03 08:20:13;;;;;;;1.83;1.67;;;;;;;;;;6238937;28;20192;-79
2022/01/03 08:23:17;;;;;;;5.80;1.37;;;;;;;;;;6240077;28;20211;-79
2022/01/03 08:26:21;;;;;;;1.60;1.57;;;;;;;;;;6239689;28;20195;-79
2022/01/03 08:29:25;;;;;;;9.63;1.80;;;;;;;;;;6239906;28;20224;-79
2022/01/03 08:32:30;;;;;;;2.00;1.90;;;;;;;;;;6240206;28;20235;-79
2022/01/03 08:35:35;;;;;;;4.37;2.10;;;;;;;;;;6239228;28;20247;-79
2022/01/03 08:38:39;;;;;;;1.70;1.60;;;;;;;;;;6238642;28;20215;-79
2022/01/03 08:41:44;;;;;;;5.63;1.60;;;;;;;;;;6239932;28;20195;-79
2022/01/03 08:44:48;;;;;;;7.97;1.70;;;;;;;;;;6238194;28;20399;-79
2022/01/03 08:47:52;;;;;;;4.20;1.80;;;;;;;;;;6262614;28;20526;-79
2022/01/03 08:50:58;;;;;;;5.90;1.47;;;;;;;;;;6288497;28;20242;-78
2022/01/03 08:54:09;;;;;;;1.83;1.73;;;;;;;;;;6287451;28;20194;-78
2022/01/03 08:57:14;;;;;;;7.13;1.47;;;;;;;;;;6287585;28;20253;-77
2022/01/03 09:00:18;;;;;;;3.43;1.53;;;;;;;;;;6286661;28;20407;-78
2022/01/03 09:03:23;;;;;;;3.27;1.33;;;;;;;;;;6286743;28;20480;-79
2022/01/03 09:06:29;;;;;;;1.77;1.50;;;;;;;;;;6287086;28;20187;-77
2022/01/03 09:09:34;;;;;;;1.60;1.50;;;;;;;;;;6289209;28;20232;-79
2022/01/03 09:12:39;;;;;;;2.70;1.53;;;;;;;;;;6288787;28;20187;-80
2022/01/03 09:15:46;;;;;;;6.73;1.80;;;;;;;;;;6288226;28;20210;-79
2022/01/03 09:18:50;;;;;;;1.50;1.40;;;;;;;;;;6287182;28;20354;-79
2022/01/03 09:22:06;;;;;;;9.73;1.90;;;;;;;;;;6288475;28;20374;-79
2022/01/03 09:28:52;;;;;;;2.83;1.53;;;;;;;;;;6288997;28;20188;-77
2022/01/03 09:31:56;;;;;;;6.67;1.43;;;;;;;;;;6289115;28;20303;-77
2022/01/03 09:35:00;;;;;;;1.60;1.50;;;;;;;;;;6291338;28;20191;-77
2022/01/03 09:38:06;;;;;;;2.90;1.60;;;;;;;;;;6292034;28;20187;-81
2022/01/03 09:41:13;;;;;;;1.77;1.63;;;;;;;;;;6293965;28;20191;-78
2022/01/03 09:44:17;;;;;;;2.67;2.23;;;;;;;;;;6293010;28;20187;-78
2022/01/03 09:47:22;;;;;;;1.53;1.53;;;;;;;;;;6293663;28;20230;-79
2022/01/03 09:50:27;;;;;;;4.73;2.07;;;;;;;;;;6294282;28;20274;-79
2022/01/03 09:53:34;;;;;;;2.33;1.73;;;;;;;;;;6294492;28;20185;-80
2022/01/03 09:56:40;;;;;;;7.13;1.90;;;;;;;;;;6294001;28;20351;-79
2022/01/03 09:59:44;;;;;;;2.67;1.70;;;;;;;;;;6292051;28;20195;-79
2022/01/03 10:02:49;;;;;;;5.67;1.93;;;;;;;;;;6291758;28;20236;-79
2022/01/03 10:05:53;;;;;;;7.57;2.23;;;;;;;;;;6291795;28;20192;-77
2022/01/03 10:09:00;;;;;;;6.33;2.40;;;;;;;;;;6293056;28;20203;-78
2022/01/03 10:12:05;;;;;;;1.70;1.70;;;;;;;;;;6291773;28;20185;-77
2022/01/03 10:15:10;;;;;;;6.23;2.30;;;;;;;;;;6291841;28;20194;-78
2022/01/03 10:18:18;;;;;;;1.87;1.80;;;;;;;;;;6294013;28;20275;-78
2022/01/03 10:21:36;;;;;;;2.20;1.80;;;;;;;;;;6294022;28;20191;-78
2022/01/03 10:24:42;;;;;;;5.90;1.67;;;;;;;;;;6294596;28;20267;-77
2022/01/03 10:27:50;;;;;;;5.07;2.20;;;;;;;;;;6293935;28;20186;-78
2022/01/03 10:30:54;;;;;;;1.97;1.80;;;;;;;;;;6292982;28;20215;-78
2022/01/03 10:34:06;;;;;;;7.83;2.13;;;;;;;;;;6293796;28;20187;-78
2022/01/03 10:37:14;;;;;;;2.07;1.87;;;;;;;;;;6292477;28;20190;-78
2022/01/03 10:40:28;;;;;;;4.57;2.30;;;;;;;;;;6294983;28;20191;-77
2022/01/03 10:43:35;;;;;;;2.17;1.93;;;;;;;;;;6292499;28;20223;-77
2022/01/03 10:46:39;;;;;;;4.23;1.90;;;;;;;;;;6292603;28;20194;-77
2022/01/03 10:49:46;;;;;;;6.43;1.83;;;;;;;;;;6290286;28;20213;-79
2022/01/03 10:52:50;;;;;;;4.03;1.93;;;;;;;;;;6290578;28;20223;-78
2022/01/03 10:55:55;;;;;;;5.73;1.80;;;;;;;;;;6290093;28;20190;-78
2022/01/03 10:59:01;;;;;;;3.37;1.87;;;;;;;;;;6290340;28;20193;-77
2022/01/03 11:02:08;;;;;;;3.83;2.20;;;;;;;;;;6290047;28;20191;-78
2022/01/03 11:05:12;;;;;;;4.10;2.27;;;;;;;;;;6290683;28;20187;-79
2022/01/03 11:11:46;;;;;;;5.63;1.97;;;;;;;;;;6290307;28;20261;-77
2022/01/03 11:14:51;;;;;;;5.53;1.90;;;;;;;;;;6288254;28;20459;-78
2022/01/03 11:18:08;;;;;;;2.90;1.80;;;;;;;;;;6288170;28;20186;-78
2022/01/03 11:21:16;;;;;;;3.60;1.80;;;;;;;;;;6288126;28;20196;-78
2022/01/03 11:24:20;;;;;;;3.43;2.30;;;;;;;;;;6288968;28;20188;-78
2022/01/03 11:27:26;;;;;;;2.83;2.47;;;;;;;;;;6289555;28;20187;-79
2022/01/03 11:30:30;;;;;;;5.30;2.47;;;;;;;;;;6287874;28;20244;-78
2022/01/03 11:33:36;;;;;;;6.30;2.50;;;;;;;;;;6288711;28;20195;-78
2022/01/03 11:37:00;;;;;;;4.00;2.70;;;;;;;;;;6287464;28;20268;-77
2022/01/03 11:40:06;;;;;;;7.33;2.60;;;;;;;;;;6287288;28;20276;-78
2022/01/03 11:43:13;;;;;;;3.80;2.83;;;;;;;;;;6288798;28;20194;-77
2022/01/03 11:46:17;;;;;;;2.90;2.70;;;;;;;;;;6287988;28;20297;-77
2022/01/03 11:49:21;;;;;;;3.83;1.87;;;;;;;;;;6287001;28;20295;-77
2022/01/03 11:52:26;;;;;;;3.80;2.23;;;;;;;;;;6287897;28;20216;-76
2022/01/03 11:55:30;;;;;;;6.10;2.37;;;;;;;;;;6286501;28;20233;-77
2022/01/03 11:58:46;;;;;;;2.77;2.47;;;;;;;;;;6287644;28;20187;-76
2022/01/03 12:05:40;;;;;;;4.90;2.73;;;;;;;;;;6274296;28;20372;-79
2022/01/03 12:08:55;;;;;;;4.83;2.17;;;;;;;;;;6288897;28;20234;-80
2022/01/03 12:11:59;;;;;;;4.37;2.73;;;;;;;;;;6288827;28;20213;-80
2022/01/03 12:15:06;;;;;;;6.40;2.50;;;;;;;;;;6288733;28;20233;-79
2022/01/03 12:18:31;;;;;;;3.10;2.23;;;;;;;;;;6288057;28;20537;-79
2022/01/03 12:21:55;;;;;;;2.57;2.47;;;;;;;;;;6287604;28;20207;-79
2022/01/03 12:25:03;;;;;;;3.00;2.80;;;;;;;;;;6288368;28;20291;-80
2022/01/03 12:28:07;;;;;;;2.30;2.20;;;;;;;;;;6289052;28;20188;-80
2022/01/03 12:31:13;;;;;;;4.83;2.40;;;;;;;;;;6288795;28;20214;-80
2022/01/03 12:34:18;;;;;;;2.07;2.07;;;;;;;;;;6288578;28;20219;-80
2022/01/03 12:37:24;;;;;;;4.00;2.60;;;;;;;;;;6287646;28;20277;-80
2022/01/03 12:40:30;;;;;;;4.23;2.37;;;;;;;;;;6287537;28;20210;-80
2022/01/03 12:43:46;;;;;;;3.53;2.80;;;;;;;;;;6288711;28;20191;-80
2022/01/03 12:47:15;;;;;;;5.90;2.40;;;;;;;;;;6288731;28;20266;-80
2022/01/03 12:50:21;;;;;;;6.60;2.43;;;;;;;;;;6288690;28;20188;-80
2022/01/03 12:53:53;;;;;;;7.07;2.47;;;;;;;;;;6288913;28;20278;-80
2022/01/03 12:57:12;;;;;;;3.03;2.70;;;;;;;;;;6288458;28;20207;-80
2022/01/03 13:00:41;;;;;;;6.33;2.67;;;;;;;;;;6289372;28;20192;-80
2022/01/03 13:03:49;;;;;;;6.77;2.97;;;;;;;;;;6287731;28;20377;-80
2022/01/03 13:07:04;;;;;;;9.30;2.60;;;;;;;;;;6289157;28;20260;-81
2022/01/03 13:10:10;;;;;;;7.60;2.60;;;;;;;;;;6291019;28;20473;-80
2022/01/03 13:13:27;;;;;;;3.30;1.97;;;;;;;;;;6292688;28;20220;-80
2022/01/03 13:16:32;;;;;;;4.80;2.37;;;;;;;;;;6292712;28;20261;-80
2022/01/03 13:19:38;;;;;;;3.23;2.63;;;;;;;;;;6293225;28;20187;-79
2022/01/03 13:22:44;;;;;;;2.60;2.07;;;;;;;;;;6292267;28;20474;-80
2022/01/03 13:25:48;;;;;;;2.63;2.37;;;;;;;;;;6293750;28;20275;-80
2022/01/03 13:28:54;;;;;;;7.87;2.30;;;;;;;;;;6293822;28;20452;-79
2022/01/03 13:31:59;;;;;;;2.70;2.17;;;;;;;;;;6291903;28;20215;-79
2022/01/03 13:35:08;;;;;;;8.70;2.50;;;;;;;;;;6292929;28;20185;-78
2022/01/03 13:38:17;;;;;;;4.33;2.07;;;;;;;;;;6291664;28;20380;-78
2022/01/03 13:41:21;;;;;;;2.93;1.87;;;;;;;;;;6293380;28;20200;-79
2022/01/03 13:44:42;;;;;;;3.33;2.37;;;;;;;;;;6292092;28;20187;-80
2022/01/03 13:51:20;;;;;;;7.63;2.57;;;;;;;;;;6292430;28;20283;-78
2022/01/03 13:54:26;;;;;;;11.37;2.43;;;;;;;;;;6292993;28;20257;-80
2022/01/03 13:57:34;;;;;;;5.53;2.00;;;;;;;;;;6292495;28;20251;-79
2022/01/03 14:00:44;;;;;;;2.50;2.40;;;;;;;;;;6293091;28;20249;-78
2022/01/03 14:03:49;;;;;;;3.80;2.07;;;;;;;;;;6291328;28;20189;-85
2022/01/03 14:07:07;;;;;;;10.63;2.53;;;;;;;;;;6292752;28;20186;-81
2022/01/03 14:10:12;;;;;;;9.07;2.63;;;;;;;;;;6291653;28;20188;-80
2022/01/03 14:13:19;;;;;;;4.13;2.07;;;;;;;;;;6292442;28;20220;-81
2022/01/03 14:16:53;;;;;;;3.37;2.03;;;;;;;;;;6291288;28;20185;-78
2022/01/03 14:20:02;;;;;;;7.30;2.70;;;;;;;;;;6291621;28;20225;-79
2022/01/03 14:23:17;;;;;;;3.53;1.97;;;;;;;;;;6292387;28;20191;-80
2022/01/03 14:26:24;;;;;;;9.57;2.73;;;;;;;;;;6291041;28;20188;-77
2022/01/03 14:29:35;;;;;;;8.30;2.33;;;;;;;;;;6290600;28;20194;-79
2022/01/03 14:32:40;;;;;;;8.10;2.23;;;;;;;;;;6290878;28;20518;-80
2022/01/03 14:35:45;;;;;;;6.07;2.73;;;;;;;;;;6291115;28;20262;-79
2022/01/03 14:38:59;;;;;;;9.27;2.80;;;;;;;;;;6291998;28;20288;-79
2022/01/03 14:42:06;;;;;;;4.67;2.90;;;;;;;;;;6314090;28;20281;-80
2022/01/03 14:45:14;;;;;;;4.20;2.60;;;;;;;;;;6315464;28;20232;-80
2022/01/03 14:48:20;;;;;;;10.60;3.10;;;;;;;;;;6315778;28;20303;-79
2022/01/03 14:51:34;;;;;;;5.97;2.70;;;;;;;;;;6315799;28;20214;-81
2022/01/03 14:54:50;;;;;;;3.93;2.50;;;;;;;;;;6316514;28;20246;-80
2022/01/03 14:57:54;;;;;;;2.73;2.03;;;;;;;;;;6315990;28;20185;-81
2022/01/03 15:00:58;;;;;;;4.87;2.10;;;;;;;;;;6315852;28;20397;-82
2022/01/03 15:04:02;;;;;;;4.93;2.17;;;;;;;;;;6315856;28;20188;-79
2022/01/03 15:07:12;;;;;;;6.30;2.30;;;;;;;;;;6317803;28;20208;-81
2022/01/03 15:10:19;;;;;;;15.40;2.43;;;;;;;;;;6340931;28;20186;-78
2022/01/03 15:13:30;;;;;;;5.53;1.97;;;;;;;;;;6341200;28;20209;-81
2022/01/03 15:16:35;;;;;;;15.70;2.40;;;;;;;;;;6339456;28;20248;-77
2022/01/03 15:19:39;;;;;;;7.23;2.10;;;;;;;;;;6340502;28;20190;-82
2022/01/03 15:22:44;;;;;;;8.70;2.10;;;;;;;;;;6341970;28;20243;-81
2022/01/03 15:25:49;;;;;;;2.10;1.90;;;;;;;;;;6323955;28;20207;-79
2022/01/03 15:28:54;;;;;;;2.40;1.70;;;;;;;;;;6341396;28;20186;-78
2022/01/03 15:31:59;;;;;;;7.07;2.73;;;;;;;;;;6339728;28;20434;-79
2022/01/03 15:35:04;;;;;;;10.00;2.30;;;;;;;;;;6339304;28;20271;-82
2022/01/03 15:38:13;;;;;;;6.60;2.20;;;;;;;;;;6339404;28;20489;-78
2022/01/03 15:41:20;;;;;;;4.17;2.77;;;;;;;;;;6323855;28;20184;-84
2022/01/03 15:44:26;;;;;;;2.93;2.20;;;;;;;;;;6340001;28;20304;-81
2022/01/03 15:47:31;;;;;;;3.50;2.27;;;;;;;;;;6313290;28;20232;-79
2022/01/03 15:50:35;;;;;;;6.33;2.47;;;;;;;;;;6329208;28;20201;-78
2022/01/03 15:53:40;;;;;;;6.93;2.23;;;;;;;;;;6314658;28;20215;-82
2022/01/03 15:56:46;;;;;;;4.13;2.37;;;;;;;;;;6312094;28;65700;-83
2022/01/03 15:59:50;;;;;;;9.70;2.17;;;;;;;;;;6308971;28;71814;-80
2022/01/03 16:02:54;;;;;;;5.80;2.10;;;;;;;;;;6314770;28;20310;-79
2022/01/03 16:05:59;;;;;;;2.10;2.00;;;;;;;;;;6314347;28;20260;-80
2022/01/03 16:09:04;;;;;;;2.27;2.13;;;;;;;;;;6309959;28;20245;-80
2022/01/03 16:12:11;;;;;;;3.10;2.57;;;;;;;;;;6312579;28;20282;-79
2022/01/03 16:15:15;;;;;;;2.43;2.17;;;;;;;;;;6312926;28;20238;-80
2022/01/03 16:18:19;;;;;;;8.57;2.33;;;;;;;;;;6314088;28;20202;-80
2022/01/03 16:21:24;;;;;;;1.83;1.73;;;;;;;;;;6312663;28;20244;-80
2022/01/03 16:24:28;;;;;;;4.33;2.20;;;;;;;;;;6310709;28;20268;-80
2022/01/03 16:27:35;;;;;;;6.63;2.27;;;;;;;;;;6312989;28;20524;-80
2022/01/03 16:30:39;;;;;;;5.37;2.00;;;;;;;;;;6310941;28;20232;-80
2022/01/03 16:33:43;;;;;;;2.10;1.97;;;;;;;;;;6313559;28;20318;-80
2022/01/03 16:36:48;;;;;;;7.40;2.00;;;;;;;;;;6312575;28;20642;-80
2022/01/03 16:39:53;;;;;;;3.67;1.97;;;;;;;;;;6314782;28;20294;-82
2022/01/03 16:42:59;;;;;;;7.87;2.10;;;;;;;;;;6319979;28;20191;-82
2022/01/03 16:46:06;;;;;;;7.50;2.47;;;;;;;;;;6320552;28;20187;-81
2022/01/03 16:49:11;;;;;;;4.27;2.17;;;;;;;;;;6316469;28;20302;-79
2022/01/03 16:52:16;;;;;;;8.57;2.23;;;;;;;;;;6326403;28;20236;-79
2022/01/03 16:55:20;;;;;;;4.17;2.70;;;;;;;;;;6344016;28;20516;-80
2022/01/03 16:58:26;;;;;;;3.07;1.90;;;;;;;;;;6345544;28;20231;-82
2022/01/03 17:01:30;;;;;;;6.03;2.37;;;;;;;;;;6345317;28;20186;-80
2022/01/03 17:04:35;;;;;;;2.63;2.53;;;;;;;;;;6347707;28;20201;-79
2022/01/03 17:07:39;;;;;;;3.67;2.57;;;;;;;;;;6348818;28;20232;-78
2022/01/03 17:10:43;;;;;;;5.63;2.63;;;;;;;;;;6350013;28;20360;-77
2022/01/03 17:13:49;;;;;;;7.63;2.50;;;;;;;;;;6347043;28;20295;-78
2022/01/03 17:16:55;;;;;;;7.73;2.93;;;;;;;;;;6327578;28;20230;-78
2022/01/03 17:20:00;;;;;;;2.63;2.30;;;;;;;;;;6346216;28;20184;-80
2022/01/03 17:23:05;;;;;;;3.83;2.63;;;;;;;;;;6344437;28;20236;-79
2022/01/03 17:26:10;;;;;;;12.83;11.50;;;;;;;;;;6342740;28;20420;-79
2022/01/03 17:29:16;;;;;;;6.13;4.13;;;;;;;;;;6342748;28;20243;-79
2022/01/03 17:32:20;;;;;;;5.17;2.70;;;;;;;;;;6341556;28;20236;-80
2022/01/03 17:35:24;;;;;;;6.90;6.03;;;;;;;;;;6342080;28;20290;-78
2022/01/03 17:38:29;;;;;;;2.80;2.50;;;;;;;;;;6341967;28;20449;-79
2022/01/03 17:41:33;;;;;;;6.40;2.40;;;;;;;;;;6345387;28;20223;-78
2022/01/03 17:44:39;;;;;;;3.47;2.37;;;;;;;;;;6329821;28;20190;-81
2022/01/03 17:47:43;;;;;;;4.00;2.30;;;;;;;;;;6346648;28;20312;-80
2022/01/03 17:50:47;;;;;;;4.27;2.07;;;;;;;;;;6347313;28;20222;-80
2022/01/03 17:53:53;;;;;;;2.20;2.00;;;;;;;;;;6345645;28;20225;-81
2022/01/03 17:56:57;;;;;;;15.00;2.37;;;;;;;;;;6327877;28;20558;-80
2022/01/03 18:00:18;;;;;;;2.93;2.70;;;;;;;;;;6346688;28;20185;-80
2022/01/03 18:03:23;;;;;;;3.80;3.60;;;;;;;;;;6345309;28;20230;-80
2022/01/03 18:06:28;;;;;;;3.80;3.50;;;;;;;;;;6344909;28;20207;-79
2022/01/03 18:09:32;;;;;;;2.60;2.47;;;;;;;;;;6342380;28;20207;-78
2022/01/03 18:12:36;;;;;;;2.30;2.20;;;;;;;;;;6342875;28;20532;-79
2022/01/03 18:15:41;;;;;;;3.90;1.93;;;;;;;;;;6344216;28;20268;-79
2022/01/03 18:18:48;;;;;;;3.80;2.33;;;;;;;;;;6344103;28;20229;-78
2022/01/03 18:21:53;;;;;;;16.57;10.83;;;;;;;;;;6341426;28;20256;-78
2022/01/03 18:24:56;;;;;;;2.43;2.33;;;;;;;;;;6342135;28;20187;-79
2022/01/03 18:28:01;;;;;;;13.30;5.90;;;;;;;;;;6339999;28;20241;-79
2022/01/03 18:31:06;;;;;;;4.23;2.37;;;;;;;;;;6341109;28;20191;-79
2022/01/03 18:34:11;;;;;;;2.33;2.13;;;;;;;;;;6339720;28;20241;-78
2022/01/03 18:37:16;;;;;;;2.10;2.00;;;;;;;;;;6339821;28;20279;-79
2022/01/03 18:40:21;;;;;;;5.50;2.03;;;;;;;;;;6340861;28;20186;-77
2022/01/03 18:43:26;;;;;;;2.80;1.80;;;;;;;;;;6339797;28;20589;-78
2022/01/03 18:46:31;;;;;;;2.20;2.10;;;;;;;;;;6339499;28;20190;-78
2022/01/03 18:49:35;;;;;;;4.30;2.20;;;;;;;;;;6340704;28;20184;-79
2022/01/03 18:52:40;;;;;;;2.73;2.10;;;;;;;;;;6339884;28;20243;-79
2022/01/03 18:55:45;;;;;;;2.67;1.97;;;;;;;;;;6340694;28;20238;-79
2022/01/03 18:58:49;;;;;;;2.33;2.03;;;;;;;;;;6339169;28;20574;-79
2022/01/03 19:01:55;;;;;;;2.40;1.90;;;;;;;;;;6339191;28;20240;-80